Time;durP1;ratioP1;P1;durP2;ratioP2;P2;SDS_P1;SDS_P2;PMS_P1;PMS_P2;Temp;Humidity;BMP_temperature;BMP_pressure;BME280_temperature;BME280_humidity;BME280_pressure;Samples;Min_cycle;Max_cycle;Signal;HPM_P1;HPM_P2
2023/06/26 00:01:51;;;;;;;7.63;7.00;;;27.70;36.40;;;;;;4962882;28;20283;-44
2023/06/26 00:04:16;;;;;;;8.07;7.37;;;27.80;36.80;;;;;;4968355;28;20647;-45
2023/06/26 00:06:42;;;;;;;8.03;7.33;;;27.80;37.00;;;;;;4970191;28;20663;-46
2023/06/26 00:09:08;;;;;;;8.20;7.50;;;28.00;36.90;;;;;;4968275;28;20203;-45
2023/06/26 00:11:34;;;;;;;7.53;6.93;;;28.10;36.30;;;;;;4968391;28;20226;-44
2023/06/26 00:14:01;;;;;;;7.40;6.80;;;28.10;36.40;;;;;;4967154;28;20471;-44
2023/06/26 00:16:27;;;;;;;8.13;7.43;;;28.10;36.40;;;;;;4970857;28;20219;-44
2023/06/26 00:18:53;;;;;;;7.23;6.53;;;28.20;36.50;;;;;;4967614;28;20828;-45
2023/06/26 00:21:19;;;;;;;7.77;7.07;;;28.00;36.40;;;;;;4970439;28;20498;-46
2023/06/26 00:23:45;;;;;;;8.20;7.50;;;28.00;36.20;;;;;;4965038;28;20479;-45
2023/06/26 00:26:11;;;;;;;8.50;7.53;;;28.10;36.00;;;;;;4970166;28;20196;-44
2023/06/26 00:28:37;;;;;;;7.57;6.97;;;28.20;36.10;;;;;;4959435;28;21084;-45
2023/06/26 00:31:03;;;;;;;10.13;7.60;;;28.20;36.00;;;;;;4959046;28;20454;-44
2023/06/26 00:33:29;;;;;;;8.27;7.47;;;28.20;36.30;;;;;;4966818;28;20211;-45
2023/06/26 00:35:54;;;;;;;8.20;7.50;;;28.20;36.30;;;;;;4963919;28;20227;-45
2023/06/26 00:38:20;;;;;;;8.30;7.50;;;28.20;36.00;;;;;;4963721;28;20584;-44
2023/06/26 00:40:46;;;;;;;7.93;7.23;;;28.30;36.60;;;;;;4962867;28;20199;-46
2023/06/26 00:43:12;;;;;;;10.77;8.03;;;28.20;36.40;;;;;;4954170;28;20537;-44
2023/06/26 00:45:38;;;;;;;8.33;7.13;;;28.10;36.10;;;;;;4970384;28;20207;-46
2023/06/26 00:48:04;;;;;;;8.80;7.90;;;28.00;36.80;;;;;;4959874;28;20286;-45
2023/06/26 00:50:30;;;;;;;7.90;7.20;;;28.00;36.70;;;;;;4962668;28;20195;-45
2023/06/26 00:53:00;;;;;;;8.77;7.87;;;28.10;36.70;;;;;;4966377;28;20446;-44
2023/06/26 00:55:29;;;;;;;9.00;8.13;;;28.10;36.40;;;;;;4964651;28;20818;-45
2023/06/26 00:57:55;;;;;;;11.23;8.13;;;28.10;36.30;;;;;;4963275;28;21188;-45
2023/06/26 01:00:21;;;;;;;7.77;6.87;;;28.10;36.20;;;;;;4967492;28;20928;-45
2023/06/26 01:02:46;;;;;;;8.40;7.60;;;28.10;36.40;;;;;;4970940;28;20480;-44
2023/06/26 01:05:20;;;;;;;8.90;8.10;;;28.20;36.60;;;;;;4965378;28;20534;-44
2023/06/26 01:07:47;;;;;;;8.30;7.60;;;28.10;36.20;;;;;;4966345;28;20195;-44
2023/06/26 01:10:13;;;;;;;8.77;7.97;;;28.10;36.30;;;;;;4959283;28;20442;-45
2023/06/26 01:12:39;;;;;;;9.57;7.87;;;28.10;36.40;;;;;;4961079;28;20474;-45
2023/06/26 01:15:05;;;;;;;8.27;7.57;;;27.70;36.80;;;;;;4958968;28;20206;-45
2023/06/26 01:17:31;;;;;;;9.20;8.30;;;27.70;37.50;;;;;;4965371;28;20854;-44
2023/06/26 01:19:59;;;;;;;8.33;7.53;;;27.60;37.80;;;;;;4965340;28;20449;-45
2023/06/26 01:22:45;;;;;;;9.23;8.33;;;27.60;37.40;;;;;;4959759;28;20454;-45
2023/06/26 01:25:17;;;;;;;8.80;7.97;;;27.60;37.10;;;;;;4968296;28;20463;-46
2023/06/26 01:27:48;;;;;;;8.80;8.00;;;27.50;37.80;;;;;;4961796;28;20950;-45
2023/06/26 01:30:17;;;;;;;10.80;8.00;;;27.50;37.50;;;;;;4956655;28;20454;-44
2023/06/26 01:32:43;;;;;;;9.33;8.43;;;27.50;37.90;;;;;;4965040;28;21060;-44
2023/06/26 01:35:10;;;;;;;9.57;8.67;;;27.30;37.60;;;;;;4966985;28;20442;-44
2023/06/26 01:37:36;;;;;;;8.90;8.10;;;26.80;38.60;;;;;;4969805;28;21004;-45
2023/06/26 01:40:05;;;;;;;8.13;7.43;;;26.70;39.30;;;;;;4966706;28;20463;-44
2023/06/26 01:42:31;;;;;;;8.73;7.93;;;26.40;39.80;;;;;;4968893;28;20195;-45
2023/06/26 01:44:57;;;;;;;7.27;6.63;;;26.30;39.70;;;;;;4968228;28;20446;-45
2023/06/26 01:47:26;;;;;;;8.50;7.60;;;26.10;40.80;;;;;;4970150;28;21277;-47
2023/06/26 01:50:09;;;;;;;9.73;6.87;;;26.40;40.00;;;;;;4968982;28;20241;-45
2023/06/26 01:52:42;;;;;;;8.23;7.43;;;26.40;39.80;;;;;;4967662;28;20493;-46
2023/06/26 01:55:23;;;;;;;10.03;8.40;;;26.40;40.00;;;;;;4964831;28;20451;-48
2023/06/26 01:57:53;;;;;;;7.87;6.90;;;26.50;39.80;;;;;;4968524;28;20489;-45
2023/06/26 02:00:21;;;;;;;7.43;6.73;;;26.40;39.90;;;;;;4968454;28;20490;-45
2023/06/26 02:02:47;;;;;;;7.73;7.10;;;26.40;40.30;;;;;;4971143;28;20447;-45
2023/06/26 02:05:13;;;;;;;9.27;8.47;;;26.40;40.40;;;;;;4965873;28;20443;-46
2023/06/26 02:07:39;;;;;;;8.80;8.00;;;26.60;40.00;;;;;;4964326;28;20199;-45
2023/06/26 02:10:05;;;;;;;7.93;7.17;;;26.70;39.70;;;;;;4960974;28;20984;-48
2023/06/26 02:12:30;;;;;;;9.00;8.13;;;26.80;39.50;;;;;;4966819;28;20266;-46
2023/06/26 02:14:56;;;;;;;7.80;7.10;;;26.90;39.60;;;;;;4964274;28;20570;-45
2023/06/26 02:17:22;;;;;;;7.93;7.23;;;27.00;39.30;;;;;;4966387;28;20325;-46
2023/06/26 02:19:47;;;;;;;8.30;7.60;;;27.10;39.10;;;;;;4967118;28;20230;-46
2023/06/26 02:22:14;;;;;;;7.87;7.17;;;27.10;38.60;;;;;;4968855;28;20203;-45
2023/06/26 02:24:41;;;;;;;8.07;7.30;;;26.90;39.30;;;;;;4970794;28;20764;-47
2023/06/26 02:27:06;;;;;;;8.43;7.70;;;26.90;39.60;;;;;;4970774;28;20806;-47
2023/06/26 02:29:32;;;;;;;7.70;7.00;;;26.90;39.30;;;;;;4972238;28;20443;-45
2023/06/26 02:31:57;;;;;;;9.07;8.23;;;26.90;39.30;;;;;;4968108;28;20812;-45
2023/06/26 02:34:23;;;;;;;8.97;8.07;;;26.90;39.50;;;;;;4963301;28;20670;-45
2023/06/26 02:36:48;;;;;;;8.70;7.87;;;27.00;39.10;;;;;;4968322;28;20769;-45
2023/06/26 02:39:14;;;;;;;9.47;8.43;;;27.10;38.70;;;;;;4969405;28;20651;-45
2023/06/26 02:41:40;;;;;;;8.93;8.03;;;27.10;38.90;;;;;;4973232;28;20195;-45
2023/06/26 02:44:06;;;;;;;8.23;7.53;;;27.20;38.40;;;;;;4968873;28;20206;-46
2023/06/26 02:46:33;;;;;;;7.87;7.07;;;27.20;38.60;;;;;;4970145;28;20265;-45
2023/06/26 02:48:58;;;;;;;8.80;8.00;;;27.20;38.60;;;;;;4967810;28;20457;-45
2023/06/26 02:51:24;;;;;;;9.00;8.20;;;27.10;38.70;;;;;;4975015;28;20434;-46
2023/06/26 02:53:50;;;;;;;8.83;8.00;;;26.80;38.90;;;;;;4973846;28;20203;-44
2023/06/26 02:56:15;;;;;;;9.07;8.23;;;26.60;39.60;;;;;;4973992;28;20223;-47
2023/06/26 02:58:41;;;;;;;8.80;8.10;;;26.60;39.30;;;;;;4969128;28;20655;-45
2023/06/26 03:01:07;;;;;;;9.00;8.20;;;26.50;39.90;;;;;;4966978;28;20230;-46
2023/06/26 03:03:40;;;;;;;8.53;7.73;;;26.40;40.20;;;;;;4967313;28;20285;-48
2023/06/26 03:06:07;;;;;;;10.60;9.10;;;26.60;39.90;;;;;;4960639;28;20230;-45
2023/06/26 03:08:33;;;;;;;9.13;8.23;;;26.70;39.70;;;;;;4967719;28;20454;-45
2023/06/26 03:10:58;;;;;;;9.00;8.13;;;26.80;39.40;;;;;;4974964;28;20451;-45
2023/06/26 03:13:24;;;;;;;9.23;8.33;;;26.80;39.50;;;;;;4974248;28;20199;-46
2023/06/26 03:15:49;;;;;;;8.80;8.03;;;26.90;39.10;;;;;;4974145;28;20215;-45
2023/06/26 03:18:15;;;;;;;9.20;7.83;;;26.90;39.20;;;;;;4971754;28;20198;-45
2023/06/26 03:20:41;;;;;;;8.83;7.93;;;26.90;39.00;;;;;;4972508;28;20203;-45
2023/06/26 03:23:06;;;;;;;9.00;8.17;;;26.90;39.10;;;;;;4972905;28;20647;-45
2023/06/26 03:25:32;;;;;;;9.30;8.40;;;26.90;39.30;;;;;;4972738;28;20196;-45
2023/06/26 03:27:57;;;;;;;7.73;6.97;;;26.90;38.90;;;;;;4970136;28;20237;-45
2023/06/26 03:30:23;;;;;;;8.80;7.90;;;26.70;39.40;;;;;;4972368;28;20191;-44
2023/06/26 03:32:48;;;;;;;8.90;8.10;;;26.70;39.90;;;;;;4970893;28;20713;-45
2023/06/26 03:35:14;;;;;;;9.10;8.33;;;26.80;39.60;;;;;;4970306;28;20202;-46
2023/06/26 03:37:40;;;;;;;8.30;7.60;;;26.80;39.50;;;;;;4973392;28;20227;-45
2023/06/26 03:40:06;;;;;;;9.00;8.10;;;26.70;39.30;;;;;;4968913;28;20652;-44
2023/06/26 03:42:32;;;;;;;8.33;7.63;;;26.40;39.80;;;;;;4972667;28;20195;-46
2023/06/26 03:44:57;;;;;;;9.30;8.40;;;26.10;40.40;;;;;;4972689;28;20477;-45
2023/06/26 03:47:23;;;;;;;9.60;8.63;;;26.10;40.70;;;;;;4970564;28;20203;-47
2023/06/26 03:49:48;;;;;;;8.57;7.87;;;26.00;41.40;;;;;;4970981;28;20198;-45
2023/06/26 03:52:14;;;;;;;9.67;8.77;;;26.00;40.90;;;;;;4972392;28;20655;-44
2023/06/26 03:54:40;;;;;;;9.23;7.80;;;26.10;40.90;;;;;;4973032;28;20198;-45
2023/06/26 03:57:05;;;;;;;9.43;8.50;;;26.20;40.90;;;;;;4970150;28;20269;-44
2023/06/26 03:59:31;;;;;;;10.10;9.20;;;26.30;40.30;;;;;;4971456;28;20585;-45
2023/06/26 04:01:56;;;;;;;8.80;8.00;;;26.10;40.80;;;;;;4973161;28;20191;-45
2023/06/26 04:04:22;;;;;;;8.50;7.80;;;26.20;40.40;;;;;;4968406;28;20202;-46
2023/06/26 04:06:47;;;;;;;9.03;8.23;;;26.30;40.60;;;;;;4969812;28;20203;-45
2023/06/26 04:09:13;;;;;;;9.17;8.37;;;26.30;40.10;;;;;;4970714;28;20279;-45
2023/06/26 04:11:39;;;;;;;9.20;8.20;;;26.20;40.20;;;;;;4970428;28;20666;-45
2023/06/26 04:14:04;;;;;;;9.30;8.50;;;26.20;40.40;;;;;;4972381;28;20191;-45
2023/06/26 04:16:30;;;;;;;9.47;8.50;;;26.10;40.50;;;;;;4971023;28;20230;-45
2023/06/26 04:18:56;;;;;;;11.40;8.80;;;26.00;40.90;;;;;;4972295;28;20210;-46
2023/06/26 04:21:24;;;;;;;8.57;7.67;;;26.00;40.90;;;;;;4966713;28;20282;-44
2023/06/26 04:23:50;;;;;;;8.83;8.10;;;25.90;41.20;;;;;;4970801;28;20478;-44
2023/06/26 04:26:16;;;;;;;9.53;8.60;;;25.90;41.20;;;;;;4971416;28;20496;-45
2023/06/26 04:28:43;;;;;;;8.90;8.10;;;25.90;41.30;;;;;;4969721;28;20451;-45
2023/06/26 04:31:08;;;;;;;9.40;8.50;;;25.90;41.30;;;;;;4967367;28;20346;-45
2023/06/26 04:33:36;;;;;;;8.97;8.17;;;25.90;41.60;;;;;;4971364;28;20525;-46
2023/06/26 04:36:05;;;;;;;9.03;8.20;;;25.90;41.50;;;;;;4969630;28;20239;-44
2023/06/26 04:38:34;;;;;;;8.63;7.77;;;25.90;42.30;;;;;;4970355;28;20962;-44
2023/06/26 04:41:02;;;;;;;9.50;8.50;;;25.80;41.70;;;;;;4968218;28;20459;-44
2023/06/26 04:43:28;;;;;;;10.60;8.37;;;25.90;41.80;;;;;;4968033;28;20816;-46
2023/06/26 04:45:54;;;;;;;9.73;8.83;;;25.90;41.80;;;;;;4963522;28;20458;-44
2023/06/26 04:48:19;;;;;;;8.60;7.80;;;25.90;42.00;;;;;;4969515;28;20702;-45
2023/06/26 04:50:53;;;;;;;9.87;8.87;;;25.90;42.20;;;;;;4971678;28;20202;-44
2023/06/26 04:53:22;;;;;;;10.57;7.83;;;25.90;42.20;;;;;;4972677;28;20337;-44
2023/06/26 04:55:52;;;;;;;10.70;8.10;;;25.90;42.20;;;;;;4970670;28;20784;-44
2023/06/26 04:58:18;;;;;;;9.00;8.10;;;25.90;42.20;;;;;;4965156;28;20446;-46
2023/06/26 05:00:43;;;;;;;8.00;7.30;;;26.00;42.20;;;;;;4970245;28;20447;-44
2023/06/26 05:03:11;;;;;;;9.67;8.67;;;25.80;42.30;;;;;;4971890;28;20438;-45
2023/06/26 05:05:37;;;;;;;14.33;7.30;;;25.90;42.50;;;;;;4969755;28;20199;-46
2023/06/26 05:08:17;;;;;;;7.90;7.10;;;26.00;42.40;;;;;;4967340;28;20450;-46
2023/06/26 05:10:44;;;;;;;9.83;8.77;;;26.20;42.30;;;;;;4967744;28;20187;-45
2023/06/26 05:13:10;;;;;;;10.83;9.40;;;26.30;41.80;;;;;;4963442;28;20452;-47
2023/06/26 05:15:36;;;;;;;9.63;8.63;;;26.40;41.60;;;;;;4968750;28;20447;-47
2023/06/26 05:18:01;;;;;;;9.50;8.60;;;26.50;41.30;;;;;;4967480;28;20454;-45
2023/06/26 05:20:27;;;;;;;9.40;8.50;;;26.60;41.10;;;;;;4963733;28;20203;-44
2023/06/26 05:22:53;;;;;;;9.73;8.73;;;26.80;41.00;;;;;;4960964;28;20271;-45
2023/06/26 05:25:21;;;;;;;8.50;7.73;;;26.60;41.30;;;;;;4971593;28;20203;-44
2023/06/26 05:27:47;;;;;;;9.03;8.20;;;26.20;42.40;;;;;;4968518;28;20268;-44
2023/06/26 05:30:13;;;;;;;10.20;9.30;;;26.00;42.90;;;;;;4968032;28;20933;-44
2023/06/26 05:32:40;;;;;;;8.20;7.50;;;26.00;43.20;;;;;;4971298;28;20478;-44
2023/06/26 05:35:06;;;;;;;8.30;7.50;;;26.00;43.20;;;;;;4969268;28;20849;-45
2023/06/26 05:37:34;;;;;;;8.33;7.63;;;25.80;43.60;;;;;;4970522;28;20486;-47
2023/06/26 05:40:01;;;;;;;9.13;8.23;;;25.90;43.80;;;;;;4970731;28;20443;-44
2023/06/26 05:42:29;;;;;;;9.70;8.73;;;25.60;44.20;;;;;;4967552;28;20443;-44
2023/06/26 05:44:55;;;;;;;9.17;8.33;;;25.70;44.50;;;;;;4968507;28;20439;-45
2023/06/26 05:47:21;;;;;;;9.00;8.10;;;25.80;44.80;;;;;;4971593;28;20462;-44
2023/06/26 05:49:46;;;;;;;9.37;8.47;;;25.70;45.20;;;;;;4968236;28;20604;-44
2023/06/26 05:52:12;;;;;;;8.03;7.33;;;25.80;44.40;;;;;;4967578;28;20199;-44
2023/06/26 05:54:38;;;;;;;11.10;7.63;;;25.90;44.40;;;;;;4969421;28;20203;-44
2023/06/26 05:57:04;;;;;;;8.97;8.27;;;26.10;44.30;;;;;;4970685;28;20899;-45
2023/06/26 05:59:34;;;;;;;8.97;8.17;;;26.10;44.50;;;;;;4967694;28;20450;-44
2023/06/26 06:02:00;;;;;;;8.73;8.03;;;25.90;45.30;;;;;;4969926;28;20454;-44
2023/06/26 06:04:25;;;;;;;8.77;8.00;;;26.00;45.10;;;;;;4966779;28;20439;-45
2023/06/26 06:06:51;;;;;;;11.83;7.67;;;26.10;45.00;;;;;;4961936;28;20274;-46
2023/06/26 06:09:17;;;;;;;9.90;8.33;;;26.10;45.20;;;;;;4966369;28;20187;-46
2023/06/26 06:11:42;;;;;;;8.20;7.40;;;26.10;45.30;;;;;;4964193;28;20195;-45
2023/06/26 06:14:08;;;;;;;9.67;7.60;;;26.40;45.10;;;;;;4966470;28;20195;-44
2023/06/26 06:16:33;;;;;;;8.20;7.40;;;26.60;44.20;;;;;;4964478;28;20310;-45
2023/06/26 06:18:59;;;;;;;10.20;8.20;;;26.80;43.80;;;;;;4967569;28;20203;-45
2023/06/26 06:21:24;;;;;;;8.47;7.63;;;27.10;43.30;;;;;;4969109;28;20207;-46
2023/06/26 06:23:50;;;;;;;8.10;7.40;;;27.00;43.00;;;;;;4965333;28;20224;-45
2023/06/26 06:26:16;;;;;;;9.00;8.17;;;26.90;43.40;;;;;;4966317;28;20665;-43
2023/06/26 06:28:41;;;;;;;8.90;8.00;;;27.20;43.30;;;;;;4969984;28;20199;-43
2023/06/26 06:31:07;;;;;;;8.77;7.90;;;27.40;43.00;;;;;;4969507;28;20207;-44
2023/06/26 06:33:32;;;;;;;10.07;7.70;;;27.60;42.50;;;;;;4970926;28;20253;-44
2023/06/26 06:35:58;;;;;;;8.67;7.97;;;27.90;42.00;;;;;;4971456;28;20360;-45
2023/06/26 06:38:23;;;;;;;8.63;7.70;;;28.10;41.70;;;;;;4971099;28;20270;-44
2023/06/26 06:40:49;;;;;;;11.00;9.90;;;28.00;41.70;;;;;;4969232;28;21021;-44
2023/06/26 06:43:15;;;;;;;8.40;7.60;;;28.00;41.50;;;;;;4970825;28;20286;-44
2023/06/26 06:45:41;;;;;;;8.70;7.90;;;28.10;41.30;;;;;;4971068;28;20403;-46
2023/06/26 06:48:06;;;;;;;8.93;8.10;;;28.10;41.20;;;;;;4970662;28;20698;-43
2023/06/26 06:50:32;;;;;;;9.00;8.10;;;28.30;41.10;;;;;;4968399;28;20258;-44
2023/06/26 06:52:58;;;;;;;9.80;8.03;;;28.70;40.30;;;;;;4965944;28;20246;-44
2023/06/26 06:55:23;;;;;;;8.93;8.13;;;28.80;40.30;;;;;;4970888;28;20206;-43
2023/06/26 06:57:50;;;;;;;9.47;8.67;;;29.00;40.00;;;;;;4970595;28;20683;-44
2023/06/26 07:00:16;;;;;;;7.87;7.07;;;29.00;39.70;;;;;;4970632;28;20196;-46
2023/06/26 07:02:45;;;;;;;9.40;8.50;;;29.20;39.70;;;;;;4967968;28;20446;-45
2023/06/26 07:05:11;;;;;;;8.60;7.80;;;29.30;39.60;;;;;;4969007;28;20510;-46
2023/06/26 07:07:37;;;;;;;8.67;7.87;;;29.70;39.10;;;;;;4968778;28;20569;-43
2023/06/26 07:10:12;;;;;;;11.57;8.23;;;30.10;38.60;;;;;;4965034;28;20203;-43
2023/06/26 07:12:38;;;;;;;8.43;7.73;;;30.50;38.20;;;;;;4955021;28;20431;-43
2023/06/26 07:15:05;;;;;;;8.47;7.77;;;30.70;37.70;;;;;;4954709;28;20419;-46
2023/06/26 07:17:32;;;;;;;8.83;8.03;;;31.00;37.60;;;;;;4962967;28;20490;-45
2023/06/26 07:19:57;;;;;;;9.30;7.77;;;31.20;36.60;;;;;;4972343;28;20430;-45
2023/06/26 07:22:23;;;;;;;8.53;7.70;;;31.30;36.00;;;;;;4974205;28;20510;-43
2023/06/26 07:24:49;;;;;;;7.93;7.20;;;31.30;36.00;;;;;;4973615;28;20600;-43
2023/06/26 07:27:18;;;;;;;8.73;8.00;;;31.60;35.60;;;;;;4972437;28;20195;-44
2023/06/26 07:29:44;;;;;;;10.43;7.53;;;31.80;35.90;;;;;;4966648;28;20199;-43
2023/06/26 07:32:10;;;;;;;8.23;7.53;;;31.90;34.90;;;;;;4973909;28;20427;-44
2023/06/26 07:34:36;;;;;;;8.70;8.00;;;32.10;35.00;;;;;;4973534;28;20199;-44
2023/06/26 07:37:01;;;;;;;7.50;6.90;;;32.20;35.40;;;;;;4973823;28;20289;-44
2023/06/26 07:39:27;;;;;;;7.90;7.30;;;32.40;34.90;;;;;;4972348;28;20210;-47
2023/06/26 07:41:53;;;;;;;8.67;7.97;;;32.60;34.10;;;;;;4973205;28;20671;-43
2023/06/26 07:44:18;;;;;;;8.60;7.90;;;32.70;33.50;;;;;;4973388;28;20191;-43
2023/06/26 07:46:47;;;;;;;8.03;7.43;;;32.60;33.60;;;;;;4971955;28;20195;-44
2023/06/26 07:49:12;;;;;;;8.20;7.50;;;32.50;34.20;;;;;;4971839;28;20618;-43
2023/06/26 07:51:38;;;;;;;7.33;6.73;;;32.60;34.40;;;;;;4969599;28;20519;-47
2023/06/26 07:54:04;;;;;;;8.10;7.30;;;32.80;34.10;;;;;;4972977;28;20262;-44
2023/06/26 07:56:29;;;;;;;12.10;7.87;;;33.00;34.90;;;;;;4973301;28;20627;-45
2023/06/26 07:58:57;;;;;;;10.20;7.77;;;33.30;34.40;;;;;;4973257;28;20199;-44
2023/06/26 08:01:23;;;;;;;9.07;8.30;;;33.40;33.20;;;;;;4973481;28;20238;-44
2023/06/26 08:03:49;;;;;;;8.17;7.33;;;33.70;33.20;;;;;;4969461;28;20447;-43
2023/06/26 08:06:14;;;;;;;11.30;8.67;;;33.90;32.40;;;;;;4971229;28;20477;-43
2023/06/26 08:08:40;;;;;;;8.60;7.80;;;34.10;32.40;;;;;;4972899;28;20250;-44
2023/06/26 08:11:06;;;;;;;9.03;8.13;;;34.20;31.70;;;;;;4973383;28;20538;-46
2023/06/26 08:13:31;;;;;;;8.80;8.00;;;34.40;32.00;;;;;;4972010;28;20650;-45
2023/06/26 08:15:57;;;;;;;8.50;7.60;;;34.50;31.40;;;;;;4969635;28;20195;-45
2023/06/26 08:18:22;;;;;;;8.50;7.70;;;34.60;30.70;;;;;;4965344;28;20268;-44
2023/06/26 08:20:48;;;;;;;7.77;7.13;;;34.60;31.10;;;;;;4968469;28;20563;-45
2023/06/26 08:23:14;;;;;;;8.17;7.57;;;34.60;30.30;;;;;;4968603;28;20379;-46
2023/06/26 08:25:39;;;;;;;10.10;7.93;;;34.70;30.50;;;;;;4965246;28;20261;-45
2023/06/26 08:28:05;;;;;;;10.27;7.20;;;34.80;30.20;;;;;;4967979;28;20195;-44
2023/06/26 08:30:35;;;;;;;8.37;7.43;;;34.80;30.00;;;;;;4969641;28;20222;-45
2023/06/26 08:33:01;;;;;;;7.13;6.50;;;34.80;30.00;;;;;;4969153;28;20242;-45
2023/06/26 08:35:29;;;;;;;8.37;7.57;;;34.80;30.30;;;;;;4964720;28;21128;-44
2023/06/26 08:38:21;;;;;;;7.43;6.83;;;35.00;30.30;;;;;;4971235;28;20238;-45
2023/06/26 08:40:47;;;;;;;9.73;7.70;;;35.00;29.70;;;;;;4955170;28;20546;-45
2023/06/26 08:43:13;;;;;;;22.60;8.20;;;35.10;30.10;;;;;;4966413;28;20449;-47
2023/06/26 08:45:39;;;;;;;9.33;7.40;;;35.20;30.00;;;;;;4967985;28;20431;-46
2023/06/26 08:48:07;;;;;;;7.33;6.73;;;35.40;29.70;;;;;;4967682;28;20203;-45
2023/06/26 08:50:34;;;;;;;7.27;6.73;;;35.60;29.30;;;;;;4972360;28;20191;-47
2023/06/26 08:53:29;;;;;;;8.63;7.10;;;35.80;29.10;;;;;;4969637;28;20450;-44
2023/06/26 08:55:57;;;;;;;6.77;6.27;;;35.90;29.30;;;;;;4945671;28;21000;-45
2023/06/26 08:58:23;;;;;;;9.13;6.90;;;36.00;29.30;;;;;;4966745;28;20851;-48
2023/06/26 09:00:49;;;;;;;7.60;6.80;;;36.10;29.10;;;;;;4958460;28;20447;-45
2023/06/26 09:03:15;;;;;;;7.83;7.13;;;36.20;29.00;;;;;;4970148;28;20199;-46
2023/06/26 09:05:41;;;;;;;7.30;6.60;;;36.20;28.60;;;;;;4968479;28;20819;-47
2023/06/26 09:08:07;;;;;;;7.83;7.13;;;36.40;28.30;;;;;;4969235;28;20864;-48
2023/06/26 09:10:33;;;;;;;7.20;6.60;;;36.20;28.30;;;;;;4967023;28;20199;-47
2023/06/26 09:13:00;;;;;;;6.77;6.13;;;36.20;28.70;;;;;;4970988;28;20439;-46
2023/06/26 09:15:28;;;;;;;7.07;6.53;;;36.30;28.50;;;;;;4969856;28;20270;-44
2023/06/26 09:17:57;;;;;;;7.00;6.40;;;36.50;28.30;;;;;;4969450;28;20565;-45
2023/06/26 09:20:23;;;;;;;6.20;5.77;;;36.60;28.50;;;;;;4969642;28;20450;-47
2023/06/26 09:22:50;;;;;;;6.70;6.20;;;36.80;27.50;;;;;;4969447;28;20446;-45
2023/06/26 09:25:17;;;;;;;8.33;6.33;;;36.90;27.60;;;;;;4966629;28;20232;-48
2023/06/26 09:27:43;;;;;;;7.40;6.70;;;36.90;27.40;;;;;;4967571;28;20665;-45
2023/06/26 09:30:09;;;;;;;6.63;6.17;;;36.90;27.70;;;;;;4966149;28;20895;-45
2023/06/26 09:32:39;;;;;;;8.03;6.20;;;37.10;27.70;;;;;;4972139;28;20918;-46
2023/06/26 09:35:04;;;;;;;6.80;6.30;;;37.30;27.50;;;;;;4969229;28;20438;-47
2023/06/26 09:37:30;;;;;;;8.40;6.90;;;37.30;27.50;;;;;;4967494;28;20489;-45
2023/06/26 09:39:56;;;;;;;8.67;6.60;;;37.50;27.30;;;;;;4967302;28;20643;-46
2023/06/26 09:42:23;;;;;;;7.00;6.30;;;37.50;27.20;;;;;;4968778;28;20222;-47
2023/06/26 09:44:49;;;;;;;7.53;6.87;;;37.60;27.40;;;;;;4967518;28;20269;-47
2023/06/26 09:47:21;;;;;;;7.07;6.47;;;37.80;27.50;;;;;;4969457;28;20576;-48
2023/06/26 09:49:47;;;;;;;8.23;6.77;;;37.80;26.90;;;;;;4967231;28;20187;-51
2023/06/26 09:52:17;;;;;;;8.00;7.07;;;37.70;27.20;;;;;;4968306;28;20456;-44
2023/06/26 09:54:46;;;;;;;7.77;6.97;;;37.90;27.00;;;;;;4969712;28;20241;-48
2023/06/26 09:57:15;;;;;;;7.33;6.63;;;37.80;26.90;;;;;;4970414;28;20523;-46
2023/06/26 09:59:41;;;;;;;7.10;6.40;;;37.90;27.00;;;;;;4969380;28;20454;-45
2023/06/26 10:02:07;;;;;;;7.23;6.63;;;37.90;26.80;;;;;;4965834;28;21115;-48
2023/06/26 10:04:35;;;;;;;7.40;6.80;;;37.70;26.90;;;;;;4967451;28;20458;-45
2023/06/26 10:07:10;;;;;;;8.60;6.17;;;37.70;27.40;;;;;;4968204;28;20450;-46
2023/06/26 10:09:40;;;;;;;7.67;6.50;;;37.70;27.00;;;;;;4968116;28;20464;-46
2023/06/26 10:12:22;;;;;;;8.27;6.07;;;37.60;26.90;;;;;;4969214;28;20666;-46
2023/06/26 10:14:48;;;;;;;7.10;6.40;;;37.70;27.40;;;;;;4967877;28;20997;-46
2023/06/26 10:17:19;;;;;;;6.30;5.80;;;37.90;27.50;;;;;;4969912;28;20485;-46
2023/06/26 10:19:45;;;;;;;7.37;6.77;;;37.80;26.60;;;;;;4968716;28;20453;-46
2023/06/26 10:22:17;;;;;;;7.47;6.77;;;37.80;26.80;;;;;;4968357;28;20475;-47
2023/06/26 10:24:47;;;;;;;8.87;6.23;;;37.70;27.10;;;;;;4965599;28;21032;-49
2023/06/26 10:27:21;;;;;;;17.90;7.00;;;37.90;27.80;;;;;;4970900;28;20438;-45
2023/06/26 10:29:54;;;;;;;7.13;5.57;;;37.90;27.70;;;;;;4970142;28;20446;-45
2023/06/26 10:32:21;;;;;;;6.93;6.40;;;38.10;27.50;;;;;;4968510;28;20465;-44
2023/06/26 10:34:47;;;;;;;7.17;6.50;;;38.30;27.20;;;;;;4965596;28;20446;-44
2023/06/26 10:37:13;;;;;;;7.40;6.70;;;38.30;27.10;;;;;;4967105;28;20574;-44
2023/06/26 10:39:50;;;;;;;7.03;6.43;;;38.30;27.50;;;;;;4968056;28;20507;-46
2023/06/26 10:42:17;;;;;;;6.67;6.20;;;38.40;27.40;;;;;;4961273;28;20202;-47
2023/06/26 10:44:44;;;;;;;7.23;6.53;;;37.90;28.10;;;;;;4969414;28;20477;-45
2023/06/26 10:47:35;;;;;;;9.20;7.17;;;37.20;28.40;;;;;;4972662;28;20448;-46
2023/06/26 10:50:28;;;;;;;7.33;6.50;;;36.90;28.60;;;;;;4967703;28;20454;-44
2023/06/26 10:53:33;;;;;;;10.90;7.63;;;36.50;29.10;;;;;;4969083;28;20818;-45
2023/06/26 10:56:00;;;;;;;8.50;7.80;;;36.40;29.20;;;;;;4966868;28;20445;-46
2023/06/26 10:58:39;;;;;;;8.53;7.57;;;36.60;29.00;;;;;;4971354;28;20496;-43
2023/06/26 11:01:11;;;;;;;8.03;7.43;;;36.50;29.30;;;;;;4973643;28;20930;-43
2023/06/26 11:03:38;;;;;;;8.07;6.93;;;36.50;29.30;;;;;;4967724;28;20477;-44
2023/06/26 11:06:21;;;;;;;7.87;7.13;;;36.20;29.50;;;;;;4972626;28;20441;-43
2023/06/26 11:08:53;;;;;;;7.47;6.87;;;36.10;29.50;;;;;;4964332;28;20454;-45
2023/06/26 11:11:19;;;;;;;7.53;6.97;;;35.90;29.70;;;;;;4962083;28;20426;-45
2023/06/26 11:13:46;;;;;;;8.10;7.40;;;35.90;30.00;;;;;;4973672;28;20495;-47
2023/06/26 11:16:14;;;;;;;8.50;7.90;;;35.90;29.90;;;;;;4972741;28;21217;-46
2023/06/26 11:18:40;;;;;;;7.80;7.20;;;36.00;29.90;;;;;;4967865;28;20488;-43
2023/06/26 11:21:11;;;;;;;9.50;8.80;;;36.30;29.50;;;;;;4971715;28;20446;-43
2023/06/26 11:23:37;;;;;;;7.63;7.03;;;36.40;29.60;;;;;;4972362;28;20480;-43
2023/06/26 11:26:23;;;;;;;8.23;7.63;;;36.70;29.90;;;;;;4972632;28;20438;-45
2023/06/26 11:28:56;;;;;;;8.27;7.47;;;36.80;29.90;;;;;;4970592;28;20457;-44
2023/06/26 11:31:25;;;;;;;8.00;7.27;;;36.90;29.90;;;;;;4970758;28;20556;-45
2023/06/26 11:33:51;;;;;;;8.40;7.70;;;37.00;29.60;;;;;;4967406;28;20473;-45
2023/06/26 11:36:16;;;;;;;7.33;6.83;;;37.00;29.60;;;;;;4972324;28;20500;-44
2023/06/26 11:38:42;;;;;;;8.93;8.10;;;37.20;29.60;;;;;;4970271;28;20338;-44
2023/06/26 11:41:08;;;;;;;8.80;8.10;;;37.20;29.40;;;;;;4949878;28;20203;-44
2023/06/26 11:43:34;;;;;;;8.40;7.27;;;36.70;30.00;;;;;;4966343;28;20198;-45
2023/06/26 11:46:00;;;;;;;7.63;7.03;;;36.30;30.40;;;;;;4954430;28;20199;-44
2023/06/26 11:48:26;;;;;;;8.03;7.23;;;36.40;30.70;;;;;;4968307;28;20472;-43
2023/06/26 11:50:51;;;;;;;8.07;7.47;;;36.50;30.90;;;;;;4968504;28;20631;-44
2023/06/26 11:53:17;;;;;;;8.10;7.47;;;36.70;30.90;;;;;;4967284;28;20195;-44
2023/06/26 11:55:43;;;;;;;8.20;7.50;;;36.60;30.90;;;;;;4968684;28;20213;-46
2023/06/26 11:58:09;;;;;;;7.80;7.10;;;36.20;31.30;;;;;;4968862;28;20260;-47
2023/06/26 12:00:34;;;;;;;8.67;7.30;;;36.30;31.70;;;;;;4972847;28;20481;-45
2023/06/26 12:03:01;;;;;;;7.40;6.90;;;36.40;31.70;;;;;;4969706;28;20658;-45
2023/06/26 12:05:27;;;;;;;8.50;7.70;;;36.70;31.20;;;;;;4968996;28;20281;-45
2023/06/26 12:07:52;;;;;;;7.60;7.00;;;36.40;31.50;;;;;;4972510;28;20443;-46
2023/06/26 12:10:19;;;;;;;8.57;7.90;;;36.60;31.40;;;;;;4973361;28;20640;-46
2023/06/26 12:12:46;;;;;;;8.00;7.30;;;36.70;31.40;;;;;;4972832;28;20182;-49
2023/06/26 12:15:14;;;;;;;8.10;7.40;;;36.70;31.80;;;;;;4970870;28;20504;-47
2023/06/26 12:17:40;;;;;;;7.70;6.83;;;36.80;31.60;;;;;;4971510;28;20488;-46
2023/06/26 12:20:17;;;;;;;7.87;7.23;;;37.00;31.40;;;;;;4971233;28;20458;-47
2023/06/26 12:22:45;;;;;;;7.50;6.80;;;37.00;31.30;;;;;;4963762;28;20198;-45
2023/06/26 12:25:10;;;;;;;7.87;7.30;;;36.70;31.80;;;;;;4958689;28;21268;-44
2023/06/26 12:27:36;;;;;;;8.53;7.63;;;36.60;32.20;;;;;;4959251;28;20454;-47
2023/06/26 12:30:05;;;;;;;7.23;6.60;;;36.60;32.50;;;;;;4968242;28;20570;-44
2023/06/26 12:32:31;;;;;;;8.90;7.13;;;36.70;32.10;;;;;;4971522;28;20205;-43
2023/06/26 12:34:57;;;;;;;10.43;7.50;;;36.70;31.80;;;;;;4971930;28;20427;-43
2023/06/26 12:37:23;;;;;;;8.93;8.27;;;36.40;32.10;;;;;;4965676;28;20301;-43
2023/06/26 12:39:49;;;;;;;8.50;7.70;;;36.20;32.50;;;;;;4962277;28;20605;-43
2023/06/26 12:42:17;;;;;;;8.23;7.63;;;36.20;32.50;;;;;;4968267;28;20239;-42
2023/06/26 12:44:43;;;;;;;8.60;8.00;;;36.30;32.70;;;;;;4967133;28;20494;-44
2023/06/26 12:47:13;;;;;;;9.70;7.50;;;36.20;32.70;;;;;;4966858;28;20465;-43